createdAt,value
2023-03-20T00:02:20.585Z,64.54
2023-03-20T00:04:47.484Z,65.84
2023-03-20T00:07:14.290Z,65.09
2023-03-20T00:09:41.119Z,64.14
2023-03-20T00:12:13.004Z,64.16
2023-03-20T00:14:40.693Z,65.06
2023-03-20T00:17:20.346Z,64.36
2023-03-20T00:19:47.399Z,64.26
2023-03-20T00:22:14.180Z,64.31
2023-03-20T00:24:41.073Z,64.88
2023-03-20T00:27:13.896Z,64.42
2023-03-20T00:29:41.077Z,65.62
2023-03-20T00:32:13.500Z,65.43
2023-03-20T00:34:40.335Z,64.96
2023-03-20T00:37:07.191Z,64.92
2023-03-20T00:39:34.360Z,65.01
2023-03-20T00:42:06.152Z,64.51
2023-03-20T00:44:38.477Z,64.70
2023-03-20T00:47:19.161Z,64.83
2023-03-20T00:49:48.576Z,64.95
2023-03-20T00:52:17.249Z,66.39
2023-03-20T00:54:44.054Z,65.39
2023-03-20T00:57:21.425Z,66.10
2023-03-20T01:00:20.343Z,65.28
2023-03-20T01:02:47.795Z,65.91
2023-03-20T01:05:14.645Z,66.18
2023-03-20T01:07:41.532Z,66.23
2023-03-20T01:10:30.153Z,66.05
2023-03-20T01:21:01.683Z,67.28
2023-03-20T01:23:28.617Z,66.53
2023-03-20T01:25:55.482Z,66.80
2023-03-20T01:28:24.292Z,66.77
2023-03-20T01:30:51.525Z,66.96
2023-03-20T01:33:23.947Z,66.96
2023-03-20T01:35:51.488Z,67.05
2023-03-20T01:38:24.806Z,66.68
2023-03-20T01:41:05.775Z,67.03
2023-03-20T01:43:34.700Z,66.57
2023-03-20T01:46:31.782Z,67.88
2023-03-20T01:49:29.393Z,66.60
2023-03-20T01:51:57.569Z,66.71
2023-03-20T01:54:36.313Z,66.42
2023-03-20T01:57:15.601Z,66.46
2023-03-20T02:00:01.518Z,66.42
2023-03-20T02:02:31.698Z,67.31
2023-03-20T02:05:04.995Z,66.78
2023-03-20T02:07:33.342Z,66.68
2023-03-20T02:10:01.653Z,66.39
2023-03-20T02:12:29.223Z,66.39
2023-03-20T02:14:56.689Z,66.89
2023-03-20T02:17:24.026Z,66.37
2023-03-20T02:20:05.218Z,66.89
2023-03-20T02:22:47.012Z,66.46
2023-03-20T02:25:49.103Z,66.78
2023-03-20T02:28:49.748Z,66.64
2023-03-20T02:31:44.042Z,66.69
2023-03-20T02:34:25.821Z,66.81
2023-03-20T02:37:57.131Z,67.14
2023-03-20T02:40:48.155Z,67.03
2023-03-20T02:43:32.896Z,68.39
2023-03-20T02:46:57.535Z,67.11
2023-03-20T02:49:44.772Z,67.34
2023-03-20T02:52:32.376Z,67.13
2023-03-20T02:56:07.483Z,66.57
2023-03-20T02:59:12.586Z,66.57
2023-03-20T03:01:46.242Z,66.19
2023-03-20T03:04:21.098Z,65.90
2023-03-20T03:06:51.855Z,65.35
2023-03-20T03:09:24.056Z,65.79
2023-03-20T03:11:59.064Z,65.43
2023-03-20T03:14:44.146Z,65.38
2023-03-20T03:17:13.433Z,65.61
2023-03-20T03:19:47.904Z,65.64
2023-03-20T03:22:16.523Z,65.78
2023-03-20T03:24:50.879Z,65.89
2023-03-20T03:27:26.441Z,65.74
2023-03-20T03:30:04.400Z,65.55
2023-03-20T03:32:36.190Z,65.87
2023-03-20T03:35:05.504Z,65.22
2023-03-20T03:37:44.446Z,65.62
2023-03-20T03:40:19.507Z,65.50
2023-03-20T03:43:16.564Z,65.45
2023-03-20T03:46:14.131Z,67.32
2023-03-20T03:48:50.740Z,66.65
2023-03-20T03:51:23.998Z,66.27
2023-03-20T03:53:59.706Z,65.51
2023-03-20T03:56:31.324Z,65.60
2023-03-20T03:59:04.309Z,65.64
2023-03-20T04:01:35.561Z,66.09
2023-03-20T04:04:07.707Z,65.75
2023-03-20T04:06:34.577Z,65.74
2023-03-20T04:09:01.448Z,65.37
2023-03-20T04:11:30.879Z,65.29
2023-03-20T04:13:57.728Z,65.25
2023-03-20T04:16:26.179Z,65.59
2023-03-20T04:18:53.840Z,65.38
2023-03-20T04:21:20.631Z,65.18
2023-03-20T04:23:47.604Z,65.36
2023-03-20T04:26:14.500Z,65.23
2023-03-20T04:28:41.362Z,65.43
2023-03-20T04:31:08.223Z,65.74
2023-03-20T04:33:35.993Z,65.58
2023-03-20T04:36:03.108Z,65.32
2023-03-20T04:38:30.323Z,65.56
2023-03-20T04:40:57.124Z,65.28
2023-03-20T04:43:23.957Z,65.54
2023-03-20T04:45:50.776Z,65.36
2023-03-20T04:48:17.686Z,65.55
2023-03-20T04:50:48.257Z,65.76
2023-03-20T04:53:15.878Z,65.81
2023-03-20T04:55:42.932Z,66.42
2023-03-20T04:58:10.057Z,66.42
2023-03-20T05:00:36.860Z,66.09
2023-03-20T05:03:03.744Z,66.08
2023-03-20T05:05:31.085Z,65.77
2023-03-20T05:07:58.019Z,65.54
2023-03-20T05:10:24.841Z,65.47
2023-03-20T05:12:51.604Z,66.02
2023-03-20T05:15:18.438Z,65.13
2023-03-20T05:17:45.188Z,65.85
2023-03-20T05:20:12.247Z,65.64
2023-03-20T05:22:39.100Z,65.44
2023-03-20T05:25:06.349Z,65.43
2023-03-20T05:27:33.206Z,65.19
2023-03-20T05:30:00.320Z,65.29
2023-03-20T05:32:27.173Z,65.25
2023-03-20T05:34:53.952Z,65.42
2023-03-20T05:37:20.703Z,65.05
2023-03-20T05:39:47.525Z,65.11
2023-03-20T05:42:14.305Z,64.96
2023-03-20T05:44:41.177Z,65.78
2023-03-20T05:47:08.012Z,65.95
2023-03-20T05:49:34.859Z,65.90
2023-03-20T05:52:01.604Z,65.14
2023-03-20T05:54:28.394Z,65.71
2023-03-20T05:56:57.240Z,65.80
2023-03-20T05:59:25.781Z,65.75
2023-03-20T06:01:52.630Z,65.69
2023-03-20T06:04:19.416Z,65.84
2023-03-20T06:06:46.327Z,65.64
2023-03-20T06:09:13.135Z,65.46
2023-03-20T06:11:39.963Z,64.91
2023-03-20T06:14:06.804Z,65.13
2023-03-20T06:16:33.867Z,65.55
2023-03-20T06:19:00.758Z,64.74
2023-03-20T06:21:27.667Z,64.94
2023-03-20T06:23:54.825Z,65.12
2023-03-20T06:26:21.696Z,65.33
2023-03-20T06:28:48.481Z,65.31
2023-03-20T06:31:15.416Z,65.56
2023-03-20T06:33:42.249Z,65.23
2023-03-20T06:36:09.790Z,66.09
2023-03-20T06:38:36.588Z,65.21
2023-03-20T06:41:03.562Z,64.93
2023-03-20T06:43:30.338Z,64.27
2023-03-20T06:45:57.306Z,64.30
2023-03-20T06:48:24.576Z,63.84
2023-03-20T06:50:52.664Z,63.65
2023-03-20T06:53:19.837Z,64.39
2023-03-20T06:55:51.643Z,64.71
2023-03-20T06:58:19.021Z,63.26
2023-03-20T07:00:46.606Z,63.67
2023-03-20T07:03:13.739Z,63.85
2023-03-20T07:05:42.419Z,62.99
2023-03-20T07:08:09.535Z,62.62
2023-03-20T07:10:37.443Z,61.28
2023-03-20T07:13:04.751Z,60.43
2023-03-20T07:15:32.343Z,59.98
2023-03-20T07:17:59.244Z,58.88
2023-03-20T07:20:26.449Z,58.88
2023-03-20T07:22:53.335Z,59.97
2023-03-20T07:25:31.731Z,60.27
2023-03-20T07:28:02.422Z,59.58
2023-03-20T07:30:29.252Z,60.25
2023-03-20T07:32:56.144Z,60.97
2023-03-20T07:35:23.026Z,61.67
2023-03-20T07:37:49.868Z,61.05
2023-03-20T07:40:17.115Z,59.99
2023-03-20T07:42:47.454Z,59.34
2023-03-20T07:45:16.643Z,60.11
2023-03-20T07:47:43.644Z,60.37
2023-03-20T07:50:11.135Z,59.13
2023-03-20T07:52:37.934Z,59.09
2023-03-20T07:55:05.969Z,58.78
2023-03-20T07:57:33.141Z,58.32
2023-03-20T07:59:59.916Z,56.47
2023-03-20T08:02:26.749Z,56.72
2023-03-20T08:04:53.527Z,56.40
2023-03-20T08:07:20.520Z,57.14
2023-03-20T08:09:47.425Z,57.92
2023-03-20T08:12:14.208Z,56.70
2023-03-20T08:14:42.433Z,58.06
2023-03-20T08:17:14.886Z,56.94
2023-03-20T08:19:43.409Z,57.42
2023-03-20T08:22:10.261Z,59.33
2023-03-20T08:24:37.172Z,58.12
2023-03-20T08:27:04.637Z,58.75
2023-03-20T08:29:31.415Z,58.91
2023-03-20T08:31:58.204Z,57.79
2023-03-20T08:34:26.300Z,56.99
2023-03-20T08:36:53.121Z,55.61
2023-03-20T08:39:20.066Z,55.53
2023-03-20T08:41:46.959Z,54.01
2023-03-20T08:44:14.234Z,54.59
2023-03-20T08:46:41.176Z,53.62
2023-03-20T08:49:08.324Z,54.65
2023-03-20T08:51:35.205Z,54.63
2023-03-20T08:54:02.006Z,54.36
2023-03-20T08:56:28.843Z,55.36
2023-03-20T08:58:56.152Z,55.88
2023-03-20T09:01:23.155Z,54.71
2023-03-20T09:03:50.469Z,52.83
2023-03-20T09:06:17.307Z,55.45
2023-03-20T09:08:44.153Z,55.81
2023-03-20T09:11:10.988Z,53.54
2023-03-20T09:13:38.028Z,52.74
2023-03-20T09:16:06.462Z,51.52
2023-03-20T09:18:33.354Z,51.95
2023-03-20T09:21:00.136Z,52.83
2023-03-20T09:23:27.337Z,51.39
2023-03-20T09:25:54.280Z,51.24
2023-03-20T09:28:21.226Z,52.27
2023-03-20T09:30:48.283Z,52.53
2023-03-20T09:33:15.417Z,52.36
2023-03-20T09:35:43.674Z,54.03
2023-03-20T09:38:12.320Z,54.11
2023-03-20T09:40:52.353Z,54.41
2023-03-20T09:44:12.982Z,55.34
2023-03-20T09:47:19.344Z,54.93
2023-03-20T09:50:27.330Z,52.96
2023-03-20T09:53:18.387Z,52.17
2023-03-20T09:55:45.916Z,51.20
2023-03-20T09:58:26.038Z,52.71
2023-03-20T10:00:58.867Z,50.88
2023-03-20T10:03:41.350Z,50.54
2023-03-20T10:06:17.885Z,50.35
2023-03-20T10:08:46.460Z,52.36
2023-03-20T10:12:08.560Z,52.02
2023-03-20T10:15:05.676Z,50.91
2023-03-20T10:18:02.821Z,52.85
2023-03-20T10:20:38.412Z,50.72
2023-03-20T10:23:36.252Z,51.56
2023-03-20T10:26:11.059Z,51.58
2023-03-20T10:28:58.963Z,51.50
2023-03-20T10:31:48.667Z,49.85
2023-03-20T10:34:48.577Z,49.78
2023-03-20T10:37:24.306Z,52.39
2023-03-20T10:40:21.824Z,50.01
2023-03-20T10:42:51.574Z,50.45
2023-03-20T10:45:18.245Z,52.66
2023-03-20T10:47:51.847Z,48.88
2023-03-20T10:50:33.295Z,47.98
2023-03-20T10:53:02.862Z,48.17
2023-03-20T10:55:37.992Z,45.69
2023-03-20T10:58:24.909Z,43.64
2023-03-20T11:00:55.729Z,43.80
2023-03-20T11:03:27.125Z,41.84
2023-03-20T11:06:25.480Z,41.64
2023-03-20T11:08:53.774Z,41.53
2023-03-20T11:11:34.564Z,41.84
2023-03-20T11:14:18.620Z,40.90
2023-03-20T11:16:53.423Z,39.09
2023-03-20T11:19:23.148Z,42.34
2023-03-20T11:21:58.242Z,42.76
2023-03-20T11:24:41.931Z,43.51
2023-03-20T11:27:25.073Z,42.88
2023-03-20T11:29:52.981Z,42.99
2023-03-20T11:32:32.299Z,44.60
2023-03-20T11:35:27.313Z,45.76
2023-03-20T11:38:09.194Z,44.57
2023-03-20T11:40:36.775Z,44.87
2023-03-20T11:43:25.820Z,45.11
2023-03-20T11:46:01.072Z,46.79
2023-03-20T11:48:45.497Z,46.15
2023-03-20T11:51:18.861Z,45.61
2023-03-20T11:53:48.619Z,45.41
2023-03-20T11:56:26.232Z,45.10
2023-03-20T11:58:58.782Z,45.78
2023-03-20T12:01:27.768Z,45.32
2023-03-20T12:04:15.006Z,44.74
2023-03-20T12:07:04.985Z,44.95
2023-03-20T12:10:00.643Z,45.39
2023-03-20T12:12:55.363Z,46.46
2023-03-20T12:15:38.821Z,46.75
2023-03-20T12:18:25.783Z,45.01
2023-03-20T12:21:08.605Z,45.91
2023-03-20T12:23:43.762Z,46.14
2023-03-20T12:26:33.781Z,46.11
2023-03-20T12:29:38.060Z,45.47
2023-03-20T12:32:38.596Z,45.47
2023-03-20T12:35:17.745Z,44.76
2023-03-20T12:37:44.556Z,45.23
2023-03-20T12:40:21.868Z,45.21
2023-03-20T12:43:05.699Z,45.71
2023-03-20T12:45:44.161Z,45.28
2023-03-20T12:48:59.384Z,46.04
2023-03-20T12:51:51.378Z,45.35
2023-03-20T12:54:45.326Z,45.95
2023-03-20T12:57:21.056Z,45.23
2023-03-20T13:00:21.057Z,44.65
2023-03-20T13:03:04.282Z,43.62
2023-03-20T13:06:20.088Z,45.04
2023-03-20T13:09:14.306Z,44.74
2023-03-20T13:12:13.224Z,45.23
2023-03-20T13:15:03.852Z,44.65
2023-03-20T13:17:48.304Z,45.06
2023-03-20T13:20:37.385Z,45.79
2023-03-20T13:23:37.265Z,46.12
2023-03-20T13:26:34.903Z,46.75
2023-03-20T13:29:28.131Z,46.76
2023-03-20T13:32:25.653Z,47.28
2023-03-20T13:35:05.896Z,46.79
2023-03-20T13:37:54.312Z,46.59
2023-03-20T13:40:24.040Z,45.60
2023-03-20T13:43:25.339Z,44.66
2023-03-20T13:46:05.728Z,44.08
2023-03-20T13:48:44.266Z,41.63
2023-03-20T13:51:34.244Z,37.79
2023-03-20T13:54:34.831Z,33.94
2023-03-20T13:57:46.284Z,32.59
2023-03-20T14:00:31.246Z,31.61
2023-03-20T14:03:28.587Z,33.96
2023-03-20T14:05:56.136Z,34.01
2023-03-20T14:08:27.256Z,34.69
2023-03-20T14:11:21.687Z,34.74
2023-03-20T14:14:16.967Z,34.52
2023-03-20T14:16:44.136Z,37.96
2023-03-20T14:19:20.839Z,38.91
2023-03-20T14:21:50.290Z,38.40
2023-03-20T14:24:20.260Z,38.50
2023-03-20T14:26:55.198Z,37.43
2023-03-20T14:29:31.802Z,36.78
2023-03-20T14:32:15.366Z,36.59
2023-03-20T14:34:47.043Z,37.00
2023-03-20T14:37:38.110Z,32.61
2023-03-20T14:40:21.878Z,29.68
2023-03-20T14:43:18.717Z,27.55
2023-03-20T14:45:55.580Z,26.79
2023-03-20T14:48:44.581Z,25.45
2023-03-20T14:51:20.644Z,24.68
2023-03-20T14:54:18.970Z,24.47
2023-03-20T14:56:45.941Z,24.71
2023-03-20T14:59:16.147Z,24.42
2023-03-20T15:02:03.135Z,26.38
2023-03-20T15:04:38.494Z,27.05
2023-03-20T15:07:22.380Z,26.75
2023-03-20T15:09:54.217Z,25.21
2023-03-20T15:12:25.319Z,24.87
2023-03-20T15:15:00.849Z,25.63
2023-03-20T15:17:47.886Z,29.10
2023-03-20T15:20:25.037Z,30.73
2023-03-20T15:22:58.162Z,28.84
2023-03-20T15:25:32.791Z,28.27
2023-03-20T15:27:59.850Z,26.25
2023-03-20T15:30:26.894Z,26.31
2023-03-20T15:32:54.914Z,26.39
2023-03-20T15:35:24.219Z,25.97
2023-03-20T15:37:53.196Z,27.03
2023-03-20T15:40:49.345Z,28.56
2023-03-20T15:43:24.318Z,28.13
2023-03-20T15:46:02.958Z,28.63
2023-03-20T15:48:37.109Z,30.03
2023-03-20T15:51:05.584Z,32.56
2023-03-20T15:53:36.592Z,34.20
2023-03-20T15:56:18.936Z,34.18
2023-03-20T15:58:49.570Z,35.44
2023-03-20T16:01:20.801Z,36.10
2023-03-20T16:03:48.279Z,36.80
2023-03-20T16:06:21.428Z,37.47
2023-03-20T16:09:06.151Z,37.99
2023-03-20T16:11:40.214Z,38.35
2023-03-20T16:14:22.213Z,38.82
2023-03-20T16:16:52.831Z,39.83
2023-03-20T16:19:20.525Z,39.16
2023-03-20T16:21:58.531Z,39.93
2023-03-20T16:24:35.326Z,40.86
2023-03-20T16:27:09.978Z,40.75
2023-03-20T16:29:43.265Z,41.68
2023-03-20T16:32:40.837Z,41.76
2023-03-20T16:35:26.560Z,41.95
2023-03-20T16:38:00.506Z,42.77
2023-03-20T16:40:34.598Z,43.15
2023-03-20T16:43:20.009Z,42.58
2023-03-20T16:45:54.308Z,43.02
2023-03-20T16:48:34.392Z,42.45
2023-03-20T16:51:20.313Z,42.76
2023-03-20T16:53:55.546Z,43.19
2023-03-20T16:56:42.590Z,44.07
2023-03-20T16:59:19.152Z,44.41
2023-03-20T17:01:51.998Z,44.74
2023-03-20T17:04:24.833Z,44.83
2023-03-20T17:07:00.130Z,45.16
2023-03-20T17:09:31.346Z,44.99
2023-03-20T17:12:15.969Z,45.13
2023-03-20T17:14:45.071Z,46.00
2023-03-20T17:17:19.568Z,46.40
2023-03-20T17:19:49.749Z,46.80
2023-03-20T17:22:23.517Z,47.41
2023-03-20T17:24:51.559Z,47.80
2023-03-20T17:27:19.753Z,47.43
2023-03-20T17:29:49.256Z,47.45
2023-03-20T17:32:19.940Z,47.73
2023-03-20T17:34:47.189Z,48.19
2023-03-20T17:37:18.669Z,48.10
2023-03-20T17:39:45.499Z,48.01
2023-03-20T17:42:24.309Z,48.58
2023-03-20T17:44:51.220Z,49.86
2023-03-20T17:47:22.653Z,49.73
2023-03-20T17:49:51.846Z,50.24
2023-03-20T17:52:23.279Z,51.03
2023-03-20T17:54:50.235Z,50.73
2023-03-20T17:57:38.809Z,51.17
2023-03-20T18:00:27.320Z,51.69
2023-03-20T18:02:54.088Z,51.87
2023-03-20T18:05:21.111Z,52.26
2023-03-20T18:07:47.947Z,51.93
2023-03-20T18:10:25.584Z,51.99
2023-03-20T18:12:52.406Z,52.28
2023-03-20T18:15:19.238Z,52.31
2023-03-20T18:17:46.054Z,52.53
2023-03-20T18:20:28.739Z,52.42
2023-03-20T18:22:55.761Z,52.58
2023-03-20T18:25:25.780Z,52.90
2023-03-20T18:27:54.139Z,52.79
2023-03-20T18:30:26.188Z,52.34
2023-03-20T18:32:53.075Z,52.70
2023-03-20T18:35:19.895Z,53.24
2023-03-20T18:37:46.760Z,53.42
2023-03-20T18:40:35.554Z,53.74
2023-03-20T18:43:03.189Z,53.67
2023-03-20T18:45:31.785Z,53.62
2023-03-20T18:47:59.233Z,53.53
2023-03-20T18:50:31.749Z,53.80
2023-03-20T18:52:59.657Z,53.89
2023-03-20T18:55:28.647Z,54.06
2023-03-20T18:57:56.508Z,54.14
2023-03-20T19:00:35.738Z,53.91
2023-03-20T19:03:02.695Z,53.70
2023-03-20T19:05:30.587Z,54.00
2023-03-20T19:07:59.691Z,53.63
2023-03-20T19:10:36.585Z,53.86
2023-03-20T19:13:05.982Z,53.57
2023-03-20T19:15:35.950Z,54.07
2023-03-20T19:18:05.755Z,53.96
2023-03-20T19:20:40.940Z,54.18
2023-03-20T19:23:12.031Z,54.67
2023-03-20T19:25:40.945Z,54.41
2023-03-20T19:28:17.161Z,54.83
2023-03-20T19:30:44.790Z,54.57
2023-03-20T19:33:11.593Z,54.66
2023-03-20T19:35:58.715Z,54.65
2023-03-20T19:38:25.310Z,54.61
2023-03-20T19:40:53.053Z,54.21
2023-03-20T19:43:23.477Z,54.27
2023-03-20T19:45:57.200Z,54.97
2023-03-20T19:48:49.165Z,55.33
2023-03-20T19:51:26.468Z,55.12
2023-03-20T19:53:54.218Z,55.09
2023-03-20T19:56:23.218Z,55.16
2023-03-20T19:58:50.341Z,55.36
2023-03-20T20:01:24.176Z,55.50
2023-03-20T20:03:53.469Z,55.43
2023-03-20T20:06:22.451Z,55.93
2023-03-20T20:08:50.613Z,56.11
2023-03-20T20:11:21.249Z,56.23
2023-03-20T20:14:05.693Z,56.31
2023-03-20T20:16:35.890Z,56.38
2023-03-20T20:19:02.865Z,56.35
2023-03-20T20:24:16.598Z,56.32
2023-03-20T20:26:54.180Z,56.52
2023-03-20T20:29:24.370Z,56.81
2023-03-20T20:31:51.459Z,56.84
2023-03-20T20:37:51.631Z,56.98
2023-03-20T20:39:53.501Z,57.51
2023-03-20T20:42:20.590Z,57.51
2023-03-20T20:44:47.833Z,57.72
2023-03-20T20:47:15.686Z,57.86
2023-03-20T20:49:43.306Z,57.87
2023-03-20T20:52:10.491Z,57.82
2023-03-20T20:54:37.712Z,57.91
2023-03-20T20:57:04.539Z,57.85
2023-03-20T20:59:31.387Z,58.22
2023-03-20T21:01:58.304Z,58.10
2023-03-20T21:04:25.526Z,57.69
2023-03-20T21:07:10.792Z,57.92
2023-03-20T21:09:38.527Z,58.15
2023-03-20T21:12:06.521Z,57.98
2023-03-20T21:14:33.597Z,58.32
2023-03-20T21:17:03.237Z,58.26
2023-03-20T21:19:40.873Z,58.16
2023-03-20T21:22:11.453Z,58.47
2023-03-20T21:24:39.825Z,58.41
2023-03-20T21:27:11.420Z,58.76
2023-03-20T21:29:41.471Z,58.43
2023-03-20T21:32:10.152Z,58.42
2023-03-20T21:34:38.783Z,58.54
2023-03-20T21:38:03.994Z,57.85
2023-03-20T21:39:54.725Z,57.86
2023-03-20T21:42:21.771Z,57.96
2023-03-20T21:48:28.560Z,58.19
2023-03-20T21:50:50.195Z,58.37
2023-03-20T21:54:04.013Z,58.89
2023-03-20T21:56:41.878Z,58.95
2023-03-20T21:59:33.111Z,59.87
2023-03-20T22:07:44.962Z,59.71
2023-03-20T22:16:26.992Z,59.80
2023-03-20T22:24:37.942Z,59.32
2023-03-20T22:27:32.570Z,59.46
2023-03-20T22:35:41.790Z,59.33
2023-03-20T22:46:36.017Z,59.83
2023-03-20T22:48:55.772Z,59.66
2023-03-20T22:51:32.539Z,59.77
2023-03-20T22:54:02.492Z,60.26
2023-03-20T22:56:29.278Z,60.55
2023-03-20T22:58:56.078Z,60.74
2023-03-20T23:01:22.946Z,60.79
2023-03-20T23:03:49.733Z,60.74
2023-03-20T23:06:23.376Z,60.15
2023-03-20T23:08:55.428Z,60.19
2023-03-20T23:11:25.600Z,60.25
2023-03-20T23:13:53.058Z,59.78
2023-03-20T23:16:20.324Z,59.11
2023-03-20T23:18:47.156Z,59.32
2023-03-20T23:21:14.025Z,59.89
2023-03-20T23:23:40.832Z,59.91
2023-03-20T23:26:11.512Z,60.30
2023-03-20T23:28:40.087Z,60.72
2023-03-20T23:31:16.030Z,60.96
2023-03-20T23:33:48.160Z,60.82
2023-03-20T23:36:32.642Z,61.11
2023-03-20T23:39:02.390Z,61.21
2023-03-20T23:41:57.633Z,60.98
2023-03-20T23:44:15.979Z,61.47
2023-03-20T23:46:42.802Z,61.22
2023-03-20T23:49:09.683Z,61.36
2023-03-20T23:51:36.700Z,61.46
2023-03-20T23:54:03.578Z,61.19
2023-03-20T23:56:30.375Z,61.10
2023-03-20T23:59:03.167Z,61.13
